createdAt,value
2019-04-25T00:01:07.808Z,13.70
2019-04-25T00:03:39.159Z,13.70
2019-04-25T00:06:09.753Z,13.60
2019-04-25T00:08:39.468Z,13.50
2019-04-25T00:11:09.186Z,13.50
2019-04-25T00:13:39.667Z,13.50
2019-04-25T00:16:09.398Z,13.50
2019-04-25T00:18:39.043Z,13.50
2019-04-25T00:21:10.359Z,13.50
2019-04-25T00:23:42.609Z,13.50
2019-04-25T00:26:17.008Z,13.50
2019-04-25T00:28:46.749Z,13.50
2019-04-25T00:31:16.522Z,13.50
2019-04-25T00:33:46.119Z,13.50
2019-04-25T00:36:16.939Z,13.50
2019-04-25T00:38:47.878Z,13.40
2019-04-25T00:41:17.856Z,13.40
2019-04-25T00:43:47.478Z,13.40
2019-04-25T00:46:17.146Z,13.40
2019-04-25T00:48:47.705Z,13.40
2019-04-25T00:51:17.403Z,13.40
2019-04-25T00:53:47.047Z,13.40
2019-04-25T00:56:16.674Z,13.40
2019-04-25T00:58:48.831Z,13.30
2019-04-25T01:01:36.275Z,13.30
2019-04-25T01:04:06.178Z,13.20
2019-04-25T01:06:35.041Z,13.20
2019-04-25T01:09:08.417Z,13.20
2019-04-25T01:11:38.319Z,13.10
2019-04-25T01:14:07.962Z,13.00
2019-04-25T01:16:37.534Z,12.90
2019-04-25T01:19:07.183Z,12.80
2019-04-25T01:21:37.566Z,12.70
2019-04-25T01:24:07.278Z,12.60
2019-04-25T01:26:37.006Z,12.60
2019-04-25T01:29:08.586Z,12.50
2019-04-25T01:31:38.294Z,12.50
2019-04-25T01:34:09.586Z,12.40
2019-04-25T01:36:47.205Z,12.40
2019-04-25T01:39:34.769Z,12.40
2019-04-25T01:42:06.329Z,12.40
2019-04-25T01:44:37.569Z,12.40
2019-04-25T01:47:07.330Z,12.40
2019-04-25T01:49:36.904Z,12.30
2019-04-25T01:52:06.711Z,12.30
2019-04-25T01:54:36.234Z,12.20
2019-04-25T01:57:06.532Z,12.20
2019-04-25T01:59:36.199Z,12.20
2019-04-25T02:02:07.475Z,12.20
2019-04-25T02:04:38.194Z,12.20
2019-04-25T02:07:09.126Z,12.20
2019-04-25T02:09:38.950Z,12.20
2019-04-25T02:12:13.486Z,12.20
2019-04-25T02:14:44.582Z,12.20
2019-04-25T02:17:14.810Z,12.20
2019-04-25T02:19:44.459Z,12.20
2019-04-25T02:22:14.582Z,12.20
2019-04-25T02:24:44.311Z,12.20
2019-04-25T02:27:13.883Z,12.10
2019-04-25T02:29:44.750Z,12.10
2019-04-25T02:32:15.110Z,12.00
2019-04-25T02:34:45.595Z,12.00
2019-04-25T02:37:15.418Z,12.00
2019-04-25T02:39:45.156Z,12.00
2019-04-25T02:42:16.890Z,11.90
2019-04-25T02:44:47.764Z,11.90
2019-04-25T02:47:34.522Z,11.90
2019-04-25T02:50:19.342Z,11.90
2019-04-25T02:52:50.505Z,11.80
2019-04-25T02:55:30.754Z,11.70
2019-04-25T02:57:51.511Z,11.60
2019-04-25T03:00:25.088Z,11.60
2019-04-25T03:02:54.851Z,11.50
2019-04-25T03:05:25.533Z,11.50
2019-04-25T03:07:55.423Z,11.50
2019-04-25T03:10:27.017Z,11.50
2019-04-25T03:12:59.055Z,11.50
2019-04-25T03:15:28.797Z,11.50
2019-04-25T03:18:00.134Z,11.50
2019-04-25T03:20:37.179Z,11.50
2019-04-25T03:23:09.575Z,11.50
2019-04-25T03:25:40.081Z,11.50
2019-04-25T03:28:09.746Z,11.60
2019-04-25T03:30:39.412Z,11.60
2019-04-25T03:33:13.565Z,11.60
2019-04-25T03:35:40.347Z,11.70
2019-04-25T03:38:10.014Z,11.60
2019-04-25T03:40:39.666Z,11.70
2019-04-25T03:43:09.331Z,11.60
2019-04-25T03:45:38.977Z,11.70
2019-04-25T03:48:09.534Z,11.70
2019-04-25T03:50:39.355Z,11.70
2019-04-25T03:53:09.005Z,11.80
2019-04-25T03:55:38.647Z,11.80
2019-04-25T03:58:10.654Z,11.70
2019-04-25T04:00:39.651Z,11.60
2019-04-25T04:03:09.425Z,11.50
2019-04-25T04:05:39.148Z,11.40
2019-04-25T04:08:09.700Z,11.30
2019-04-25T04:10:39.376Z,11.20
2019-04-25T04:13:09.050Z,11.20
2019-04-25T04:15:38.765Z,11.10
2019-04-25T04:18:10.655Z,11.10
2019-04-25T04:20:44.582Z,11.20
2019-04-25T04:23:28.707Z,11.10
2019-04-25T04:25:58.602Z,11.20
2019-04-25T04:28:28.589Z,11.20
2019-04-25T04:30:57.465Z,11.20
2019-04-25T04:33:32.247Z,11.10
2019-04-25T04:35:59.922Z,11.20
2019-04-25T04:38:29.522Z,11.20
2019-04-25T04:40:59.088Z,11.10
2019-04-25T04:43:28.797Z,11.10
2019-04-25T04:45:58.434Z,11.10
2019-04-25T04:48:28.142Z,11.10
2019-04-25T04:50:57.875Z,11.10
2019-04-25T04:53:27.511Z,11.10
2019-04-25T04:55:57.236Z,11.10
2019-04-25T04:58:26.943Z,11.10
2019-04-25T05:00:56.591Z,11.10
2019-04-25T05:03:27.950Z,11.10
2019-04-25T05:05:59.102Z,11.20
2019-04-25T05:08:36.370Z,11.30
2019-04-25T05:11:05.976Z,11.40
2019-04-25T05:13:35.606Z,11.40
2019-04-25T05:16:05.191Z,11.50
2019-04-25T05:18:39.471Z,11.50
2019-04-25T05:21:06.047Z,11.60
2019-04-25T05:23:35.793Z,11.70
2019-04-25T05:26:05.412Z,11.80
2019-04-25T05:28:34.979Z,11.80
2019-04-25T05:31:06.363Z,11.90
2019-04-25T05:33:36.033Z,12.00
2019-04-25T05:36:05.929Z,12.10
2019-04-25T05:38:34.863Z,12.20
2019-04-25T05:41:06.126Z,12.30
2019-04-25T05:43:35.779Z,12.40
2019-04-25T05:46:05.515Z,12.50
2019-04-25T05:48:39.584Z,12.60
2019-04-25T05:51:09.406Z,12.80
2019-04-25T05:53:39.006Z,12.90
2019-04-25T05:56:08.729Z,13.00
2019-04-25T05:58:38.374Z,13.10
2019-04-25T06:01:07.965Z,13.20
2019-04-25T06:03:37.641Z,13.30
2019-04-25T06:06:07.351Z,13.50
2019-04-25T06:08:38.731Z,13.60
2019-04-25T06:11:13.555Z,13.70
2019-04-25T06:13:44.923Z,13.80
2019-04-25T06:16:18.438Z,14.00
2019-04-25T06:18:49.819Z,14.10
2019-04-25T06:21:19.990Z,14.20
2019-04-25T06:23:54.449Z,14.40
2019-04-25T06:26:34.052Z,14.50
2019-04-25T06:28:59.558Z,14.60
2019-04-25T06:31:29.053Z,14.70
2019-04-25T06:33:57.995Z,14.90
2019-04-25T06:36:27.860Z,15.00
2019-04-25T06:38:56.792Z,15.20
2019-04-25T06:41:27.086Z,15.30
2019-04-25T06:43:58.597Z,15.40
2019-04-25T06:46:46.323Z,15.60
2019-04-25T06:49:27.758Z,15.80
2019-04-25T06:51:57.454Z,16.00
2019-04-25T06:54:28.103Z,16.20
2019-04-25T06:56:58.002Z,16.40
2019-04-25T06:59:28.833Z,16.60
2019-04-25T07:01:58.690Z,16.80
2019-04-25T07:04:29.212Z,17.00
2019-04-25T07:07:09.745Z,17.20
2019-04-25T07:09:32.841Z,17.30
2019-04-25T07:12:03.570Z,17.50
2019-04-25T07:14:34.122Z,17.70
2019-04-25T07:17:05.009Z,17.80
2019-04-25T07:19:34.392Z,18.00
2019-04-25T07:22:05.319Z,18.10
2019-04-25T07:24:36.040Z,18.20
2019-04-25T07:27:13.778Z,18.40
2019-04-25T07:30:01.091Z,18.50
2019-04-25T07:32:39.732Z,18.60
2019-04-25T07:35:09.558Z,18.80
2019-04-25T07:37:41.496Z,18.90
2019-04-25T07:40:10.365Z,19.00
2019-04-25T07:42:40.111Z,19.10
2019-04-25T07:45:10.253Z,19.20
2019-04-25T07:47:40.162Z,19.30
2019-04-25T07:50:08.995Z,19.40
2019-04-25T07:52:38.567Z,19.50
2019-04-25T07:55:08.589Z,19.60
2019-04-25T07:57:38.664Z,19.70
2019-04-25T08:00:14.608Z,19.80
2019-04-25T08:02:44.348Z,19.90
2019-04-25T08:05:17.683Z,19.90
2019-04-25T08:07:47.430Z,20.00
2019-04-25T08:10:17.434Z,20.10
2019-04-25T08:12:47.507Z,20.20
2019-04-25T08:15:18.946Z,20.30
2019-04-25T08:18:03.936Z,20.40
2019-04-25T08:20:35.798Z,20.50
2019-04-25T08:23:06.021Z,20.70
2019-04-25T08:25:38.906Z,21.00
2019-04-25T08:28:07.060Z,21.20
2019-04-25T08:30:36.755Z,21.30
2019-04-25T08:33:08.276Z,21.50
2019-04-25T08:35:38.215Z,21.50
2019-04-25T08:38:07.790Z,21.60
2019-04-25T08:40:38.919Z,21.60
2019-04-25T08:43:08.596Z,21.80
2019-04-25T08:45:38.489Z,21.90
2019-04-25T08:48:09.252Z,22.00
2019-04-25T08:50:53.557Z,22.00
2019-04-25T08:53:24.681Z,22.10
2019-04-25T08:55:58.563Z,22.10
2019-04-25T08:58:29.858Z,22.10
2019-04-25T09:01:16.445Z,22.10
2019-04-25T09:03:56.906Z,22.00
2019-04-25T09:06:26.651Z,21.90
2019-04-25T09:08:55.539Z,21.90
2019-04-25T09:11:25.091Z,22.00
2019-04-25T09:13:54.739Z,22.10
2019-04-25T09:16:24.422Z,22.10
2019-04-25T09:18:54.139Z,22.20
2019-04-25T09:21:23.751Z,22.20
2019-04-25T09:23:53.657Z,22.10
2019-04-25T09:26:24.131Z,21.90
2019-04-25T09:28:53.844Z,22.00
2019-04-25T09:31:23.709Z,22.10
2019-04-25T09:33:56.006Z,22.20
2019-04-25T09:36:25.675Z,22.40
2019-04-25T09:38:56.960Z,22.50
2019-04-25T09:41:26.630Z,22.60
2019-04-25T09:43:57.147Z,22.70
2019-04-25T09:46:28.354Z,22.70
2019-04-25T09:49:08.421Z,22.80
2019-04-25T09:51:43.986Z,22.90
2019-04-25T09:54:23.933Z,22.90
2019-04-25T09:56:55.380Z,23.00
2019-04-25T09:59:28.127Z,23.10
2019-04-25T10:01:56.364Z,23.30
2019-04-25T10:04:25.226Z,23.30
2019-04-25T10:06:54.808Z,23.40
2019-04-25T10:09:24.151Z,23.50
2019-04-25T10:11:54.673Z,23.70
2019-04-25T10:14:44.995Z,23.90
2019-04-25T10:17:14.008Z,24.10
2019-04-25T10:19:43.483Z,24.30
2019-04-25T10:22:13.651Z,24.50
2019-04-25T10:24:43.402Z,24.80
2019-04-25T10:27:13.964Z,24.90
2019-04-25T10:29:51.592Z,25.00
2019-04-25T10:32:16.477Z,25.10
2019-04-25T10:34:46.212Z,25.20
2019-04-25T10:37:16.868Z,25.40
2019-04-25T10:39:46.584Z,25.40
2019-04-25T10:42:16.384Z,25.40
2019-04-25T10:44:47.099Z,25.50
2019-04-25T10:47:17.353Z,25.50
2019-04-25T10:49:47.338Z,25.70
2019-04-25T10:52:16.997Z,25.70
2019-04-25T10:54:47.717Z,25.80
2019-04-25T10:57:17.684Z,26.00
2019-04-25T11:00:00.431Z,26.20
2019-04-25T11:02:18.879Z,26.30
2019-04-25T11:04:54.417Z,26.30
2019-04-25T11:07:24.256Z,26.20
2019-04-25T11:09:55.075Z,26.20
2019-04-25T11:12:25.015Z,26.20
2019-04-25T11:14:56.125Z,26.30
2019-04-25T11:17:25.939Z,26.40
2019-04-25T11:19:55.611Z,26.60
2019-04-25T11:22:25.248Z,26.80
2019-04-25T11:24:54.959Z,26.90
2019-04-25T11:27:25.395Z,27.10
2019-04-25T11:30:08.425Z,27.30
2019-04-25T11:32:28.356Z,27.50
2019-04-25T11:34:57.991Z,27.70
2019-04-25T11:37:29.274Z,27.80
2019-04-25T11:40:04.326Z,27.80
2019-04-25T11:42:34.025Z,27.70
2019-04-25T11:45:07.416Z,27.60
2019-04-25T11:47:37.139Z,27.60
2019-04-25T11:50:08.148Z,27.60
2019-04-25T11:52:37.867Z,27.60
2019-04-25T11:55:08.363Z,27.60
2019-04-25T11:57:38.575Z,27.60
2019-04-25T12:00:21.593Z,27.70
2019-04-25T12:02:40.991Z,27.60
2019-04-25T12:05:10.808Z,27.50
2019-04-25T12:07:40.313Z,27.40
2019-04-25T12:10:10.147Z,27.20
2019-04-25T12:12:39.728Z,27.00
2019-04-25T12:15:08.590Z,26.90
2019-04-25T12:17:39.445Z,26.70
2019-04-25T12:20:10.931Z,26.30
2019-04-25T12:22:40.657Z,26.00
2019-04-25T12:25:09.539Z,25.90
2019-04-25T12:27:39.109Z,25.80
2019-04-25T12:30:07.923Z,25.70
2019-04-25T12:32:37.493Z,25.50
2019-04-25T12:35:06.466Z,25.30
2019-04-25T12:37:36.032Z,25.00
2019-04-25T12:40:08.739Z,24.80
2019-04-25T12:42:38.451Z,24.50
2019-04-25T12:45:09.074Z,24.30
2019-04-25T12:47:48.921Z,24.10
2019-04-25T12:50:18.801Z,24.00
2019-04-25T12:52:48.658Z,23.90
2019-04-25T12:55:19.037Z,23.90
2019-04-25T12:57:49.445Z,23.90
2019-04-25T13:00:21.049Z,23.90
2019-04-25T13:02:51.663Z,24.10
2019-04-25T13:05:24.237Z,24.20
2019-04-25T13:07:56.694Z,24.30
2019-04-25T13:10:24.935Z,24.50
2019-04-25T13:12:55.368Z,24.60
2019-04-25T13:15:26.833Z,24.60
2019-04-25T13:17:56.612Z,24.60
2019-04-25T13:20:25.394Z,24.50
2019-04-25T13:22:55.758Z,24.40
2019-04-25T13:25:25.639Z,24.20
2019-04-25T13:28:08.820Z,24.00
2019-04-25T13:30:59.839Z,23.90
2019-04-25T13:33:27.686Z,23.70
2019-04-25T13:35:59.043Z,23.40
2019-04-25T13:38:29.163Z,23.20
2019-04-25T13:40:58.259Z,23.00
2019-04-25T13:43:27.931Z,22.80
2019-04-25T13:45:56.966Z,22.70
2019-04-25T13:48:27.746Z,22.60
2019-04-25T13:50:57.774Z,22.50
2019-04-25T13:53:27.369Z,22.40
2019-04-25T13:55:57.143Z,22.40
2019-04-25T13:58:26.671Z,22.30
2019-04-25T14:00:57.607Z,22.30
2019-04-25T14:03:27.363Z,22.20
2019-04-25T14:05:56.098Z,22.00
2019-04-25T14:08:25.761Z,21.90
2019-04-25T14:10:54.542Z,21.70
2019-04-25T14:13:25.286Z,21.50
2019-04-25T14:15:57.065Z,21.40
2019-04-25T14:18:34.342Z,21.20
2019-04-25T14:21:08.684Z,21.10
2019-04-25T14:23:38.318Z,20.90
2019-04-25T14:26:08.914Z,20.80
2019-04-25T14:28:38.579Z,20.70
2019-04-25T14:31:09.086Z,20.70
2019-04-25T14:33:38.723Z,20.60
2019-04-25T14:36:08.548Z,20.50
2019-04-25T14:38:38.294Z,20.40
2019-04-25T14:41:08.885Z,20.30
2019-04-25T14:43:38.606Z,20.20
2019-04-25T14:46:08.488Z,20.10
2019-04-25T14:48:37.352Z,20.00
2019-04-25T14:51:07.165Z,19.90
2019-04-25T14:53:36.879Z,19.80
2019-04-25T14:56:08.235Z,19.80
2019-04-25T14:58:39.614Z,19.80
2019-04-25T15:01:11.698Z,19.70
2019-04-25T15:03:41.350Z,19.70
2019-04-25T15:06:10.935Z,19.60
2019-04-25T15:08:40.508Z,19.30
2019-04-25T15:11:13.216Z,19.20
2019-04-25T15:13:42.882Z,19.10
2019-04-25T15:16:12.527Z,19.10
2019-04-25T15:18:46.842Z,19.10
2019-04-25T15:21:13.426Z,19.00
2019-04-25T15:23:43.016Z,18.90
2019-04-25T15:26:12.595Z,18.80
2019-04-25T15:28:42.247Z,18.70
2019-04-25T15:31:12.891Z,18.50
2019-04-25T15:33:42.658Z,18.50
2019-04-25T15:36:13.108Z,18.40
2019-04-25T15:38:46.878Z,18.50
2019-04-25T15:41:18.190Z,18.50
2019-04-25T15:43:49.389Z,18.40
2019-04-25T15:46:23.683Z,18.30
2019-04-25T15:48:53.216Z,18.00
2019-04-25T15:51:22.914Z,17.90
2019-04-25T15:53:52.588Z,17.80
2019-04-25T15:56:22.235Z,17.80
2019-04-25T15:58:51.940Z,17.80
2019-04-25T16:01:21.963Z,17.70
2019-04-25T16:03:52.598Z,17.50
2019-04-25T16:06:23.965Z,17.40
2019-04-25T16:08:53.614Z,17.20
2019-04-25T16:11:23.283Z,17.10
2019-04-25T16:13:52.971Z,17.10
2019-04-25T16:16:22.571Z,17.00
2019-04-25T16:18:52.289Z,16.90
2019-04-25T16:21:22.006Z,16.80
2019-04-25T16:23:51.819Z,16.80
2019-04-25T16:26:21.598Z,16.70
2019-04-25T16:28:51.346Z,16.70
2019-04-25T16:31:22.582Z,16.70
2019-04-25T16:33:52.248Z,16.70
2019-04-25T16:36:22.041Z,16.70
2019-04-25T16:38:52.718Z,16.60
2019-04-25T16:41:22.447Z,16.70
2019-04-25T16:43:53.731Z,16.70
2019-04-25T16:46:24.026Z,16.70
2019-04-25T16:48:53.820Z,16.70
2019-04-25T16:51:24.652Z,16.70
2019-04-25T16:53:54.308Z,16.60
2019-04-25T16:56:23.974Z,16.60
2019-04-25T16:58:53.765Z,16.40
2019-04-25T17:01:23.590Z,16.30
2019-04-25T17:03:53.338Z,16.10
2019-04-25T17:06:22.975Z,15.90
2019-04-25T17:08:52.724Z,15.80
2019-04-25T17:11:22.480Z,15.70
2019-04-25T17:13:53.687Z,15.60
2019-04-25T17:16:30.957Z,15.60
2019-04-25T17:19:04.983Z,15.60
2019-04-25T17:21:34.832Z,15.60
2019-04-25T17:24:04.992Z,15.60
2019-04-25T17:26:34.844Z,15.60
2019-04-25T17:29:05.340Z,15.70
2019-04-25T17:31:54.943Z,15.70
2019-04-25T17:34:31.849Z,15.70
2019-04-25T17:37:17.860Z,15.80
2019-04-25T17:39:52.524Z,15.80
2019-04-25T17:42:22.254Z,15.90
2019-04-25T17:44:51.906Z,16.00
2019-04-25T17:47:21.619Z,16.00
2019-04-25T17:49:51.262Z,16.00
2019-04-25T17:52:20.763Z,16.00
2019-04-25T17:54:50.411Z,16.00
2019-04-25T17:57:20.055Z,15.90
2019-04-25T17:59:49.647Z,15.80
2019-04-25T18:02:19.444Z,15.80
2019-04-25T18:04:49.170Z,15.70
2019-04-25T18:07:18.892Z,15.70
2019-04-25T18:09:48.546Z,15.60
2019-04-25T18:12:18.214Z,15.60
2019-04-25T18:14:47.990Z,15.60
2019-04-25T18:17:17.568Z,15.60
2019-04-25T18:19:51.352Z,15.60
2019-04-25T18:22:25.246Z,15.60
2019-04-25T18:24:56.403Z,15.60
2019-04-25T18:27:46.735Z,15.50
2019-04-25T18:30:16.380Z,15.50
2019-04-25T18:32:47.671Z,15.50
2019-04-25T18:35:18.955Z,15.40
2019-04-25T18:38:02.567Z,15.40
2019-04-25T18:40:35.458Z,15.40
2019-04-25T18:43:10.789Z,15.40
2019-04-25T18:45:42.404Z,15.40
2019-04-25T18:48:12.190Z,15.40
2019-04-25T18:50:42.585Z,15.40
2019-04-25T18:53:18.027Z,15.40
2019-04-25T18:55:52.420Z,15.40
2019-04-25T18:58:39.839Z,15.50
2019-04-25T19:01:28.588Z,15.40
2019-04-25T19:04:11.645Z,15.30
2019-04-25T19:06:54.602Z,15.30
2019-04-25T19:09:12.703Z,15.30
2019-04-25T19:11:42.893Z,15.30
2019-04-25T19:14:12.695Z,15.30
2019-04-25T19:16:43.026Z,15.30
2019-04-25T19:19:12.759Z,15.30
2019-04-25T19:21:43.451Z,15.40
2019-04-25T19:24:13.423Z,15.40
2019-04-25T19:26:43.622Z,15.40
2019-04-25T19:29:14.172Z,15.40
2019-04-25T19:31:44.326Z,15.40
2019-04-25T19:34:14.034Z,15.40
2019-04-25T19:36:44.770Z,15.30
2019-04-25T19:39:14.682Z,15.30
2019-04-25T19:41:51.819Z,15.30
2019-04-25T19:44:23.059Z,15.30
2019-04-25T19:46:53.806Z,15.20
2019-04-25T19:49:23.521Z,15.20
2019-04-25T19:51:53.259Z,15.20
2019-04-25T19:54:22.922Z,15.10
2019-04-25T19:56:52.703Z,15.10
2019-04-25T19:59:22.429Z,15.10
2019-04-25T20:01:53.775Z,15.10
2019-04-25T20:04:43.313Z,15.10
2019-04-25T20:07:30.357Z,15.10
2019-04-25T20:10:07.728Z,15.00
2019-04-25T20:12:45.697Z,15.00
2019-04-25T20:15:16.234Z,15.00
2019-04-25T20:17:45.996Z,14.90
2019-04-25T20:20:15.807Z,15.00
2019-04-25T20:22:46.157Z,15.00
2019-04-25T20:25:16.036Z,15.00
2019-04-25T20:27:45.655Z,14.90
2019-04-25T20:30:16.491Z,14.90
2019-04-25T20:32:47.211Z,15.00
2019-04-25T20:35:17.042Z,14.90
2019-04-25T20:37:47.439Z,14.90
2019-04-25T20:40:17.411Z,14.90
2019-04-25T20:42:47.068Z,14.90
2019-04-25T20:45:18.100Z,14.90
2019-04-25T20:47:47.935Z,14.90
2019-04-25T20:50:16.877Z,14.90
2019-04-25T20:52:47.313Z,14.90
2019-04-25T20:55:17.247Z,14.80
2019-04-25T20:57:47.927Z,14.80
2019-04-25T21:00:22.899Z,14.90
2019-04-25T21:02:53.918Z,14.80
2019-04-25T21:05:23.595Z,14.80
2019-04-25T21:07:53.328Z,14.80
2019-04-25T21:10:23.056Z,14.80
2019-04-25T21:12:53.658Z,14.80
2019-04-25T21:15:25.067Z,14.80
2019-04-25T21:18:02.160Z,14.80
2019-04-25T21:20:31.812Z,14.80
2019-04-25T21:23:02.266Z,14.80
2019-04-25T21:25:32.046Z,14.80
2019-04-25T21:28:01.698Z,14.80
2019-04-25T21:30:31.341Z,14.80
2019-04-25T21:33:01.791Z,14.80
2019-04-25T21:35:32.096Z,14.80
2019-04-25T21:38:01.787Z,14.80
2019-04-25T21:40:33.126Z,14.70
2019-04-25T21:43:04.896Z,14.70
2019-04-25T21:45:34.771Z,14.70
2019-04-25T21:48:03.860Z,14.70
2019-04-25T21:50:34.093Z,14.70
2019-04-25T21:53:04.123Z,14.70
2019-04-25T21:55:34.145Z,14.70
2019-04-25T21:58:04.247Z,14.70
2019-04-25T22:00:52.495Z,14.70
2019-04-25T22:03:24.817Z,14.70
2019-04-25T22:05:55.789Z,14.80
2019-04-25T22:08:26.164Z,14.80
2019-04-25T22:10:56.349Z,14.70
2019-04-25T22:13:26.844Z,14.70
2019-04-25T22:15:57.215Z,14.70
2019-04-25T22:18:27.434Z,14.70
2019-04-25T22:20:58.338Z,14.80
2019-04-25T22:23:28.462Z,14.80
2019-04-25T22:25:58.799Z,14.80
2019-04-25T22:28:29.335Z,14.90
2019-04-25T22:31:01.354Z,14.90
2019-04-25T22:33:41.570Z,14.80
2019-04-25T22:36:15.726Z,14.90
2019-04-25T22:38:45.378Z,14.90
2019-04-25T22:41:15.018Z,14.80
2019-04-25T22:43:46.399Z,14.80
2019-04-25T22:46:26.125Z,14.90
2019-04-25T22:48:50.313Z,14.90
2019-04-25T22:51:20.049Z,14.90
2019-04-25T22:53:50.035Z,14.90
2019-04-25T22:56:19.771Z,14.90
2019-04-25T22:58:49.560Z,14.90
2019-04-25T23:01:33.201Z,14.80
2019-04-25T23:04:05.384Z,14.80
2019-04-25T23:06:35.333Z,14.80
2019-04-25T23:12:12.696Z,14.90
2019-04-25T23:14:42.715Z,14.90
2019-04-25T23:17:12.299Z,14.90
2019-04-25T23:19:43.036Z,14.90
2019-04-25T23:22:13.615Z,14.90
2019-04-25T23:24:44.953Z,14.90
2019-04-25T23:27:22.105Z,15.00
2019-04-25T23:29:51.811Z,15.00
2019-04-25T23:32:21.878Z,15.00
2019-04-25T23:34:51.533Z,15.00
2019-04-25T23:37:21.181Z,14.90
2019-04-25T23:39:50.842Z,14.90
2019-04-25T23:42:20.560Z,14.90
2019-04-25T23:44:49.806Z,15.00
2019-04-25T23:47:19.332Z,14.90
2019-04-25T23:49:48.983Z,14.90
2019-04-25T23:52:18.106Z,14.90
2019-04-25T23:54:47.599Z,14.90
2019-04-25T23:57:17.549Z,14.90
2019-04-25T23:59:47.423Z,14.90
